sensor_id;sensor_type;location;lat;lon;timestamp;pressure;altitude;pressure_sealevel;temperature;humidity
49949;BME280;35840;45.982;8.890;2023-04-26T00:00:30;97992.97;;;11.74;42.96
49949;BME280;35840;45.982;8.890;2023-04-26T00:02:57;97986.03;;;11.75;43.31
49949;BME280;35840;45.982;8.890;2023-04-26T00:05:26;97981.13;;;11.71;43.80
49949;BME280;35840;45.982;8.890;2023-04-26T00:07:53;97986.53;;;11.56;43.85
49949;BME280;35840;45.982;8.890;2023-04-26T00:10:20;97989.00;;;11.57;44.71
49949;BME280;35840;45.982;8.890;2023-04-26T00:12:47;97984.44;;;11.61;44.26
49949;BME280;35840;45.982;8.890;2023-04-26T00:15:14;97991.25;;;11.62;44.29
49949;BME280;35840;45.982;8.890;2023-04-26T00:17:41;97990.47;;;11.48;44.74
49949;BME280;35840;45.982;8.890;2023-04-26T00:20:10;97989.66;;;11.35;44.89
49949;BME280;35840;45.982;8.890;2023-04-26T00:22:38;97989.66;;;11.35;44.59
49949;BME280;35840;45.982;8.890;2023-04-26T00:25:06;97988.47;;;11.28;43.63
49949;BME280;35840;45.982;8.890;2023-04-26T00:27:33;97978.00;;;11.05;43.96
49949;BME280;35840;45.982;8.890;2023-04-26T00:30:00;98000.53;;;11.14;44.33
49949;BME280;35840;45.982;8.890;2023-04-26T00:32:27;98004.72;;;11.28;43.34
49949;BME280;35840;45.982;8.890;2023-04-26T00:34:53;97999.97;;;11.35;43.38
49949;BME280;35840;45.982;8.890;2023-04-26T00:37:20;98000.25;;;11.43;44.79
49949;BME280;35840;45.982;8.890;2023-04-26T00:39:47;97999.41;;;11.56;44.08
49949;BME280;35840;45.982;8.890;2023-04-26T00:42:14;98003.03;;;11.53;42.85
49949;BME280;35840;45.982;8.890;2023-04-26T00:44:41;98005.13;;;11.35;43.12
49949;BME280;35840;45.982;8.890;2023-04-26T00:47:08;98010.91;;;11.26;43.98
49949;BME280;35840;45.982;8.890;2023-04-26T00:49:35;98008.63;;;11.21;43.91
49949;BME280;35840;45.982;8.890;2023-04-26T00:52:02;98015.00;;;11.28;44.07
49949;BME280;35840;45.982;8.890;2023-04-26T00:54:29;98021.91;;;11.28;44.07
49949;BME280;35840;45.982;8.890;2023-04-26T00:56:56;98020.00;;;11.18;44.08
49949;BME280;35840;45.982;8.890;2023-04-26T00:59:23;98035.44;;;11.18;44.59
49949;BME280;35840;45.982;8.890;2023-04-26T01:01:50;98029.47;;;10.92;45.07
49949;BME280;35840;45.982;8.890;2023-04-26T01:04:17;98030.06;;;10.70;45.48
49949;BME280;35840;45.982;8.890;2023-04-26T01:06:44;98030.25;;;10.67;46.04
49949;BME280;35840;45.982;8.890;2023-04-26T01:09:12;98027.91;;;10.77;45.94
49949;BME280;35840;45.982;8.890;2023-04-26T01:11:42;98031.28;;;10.77;46.01
49949;BME280;35840;45.982;8.890;2023-04-26T01:14:09;98025.94;;;10.27;46.15
49949;BME280;35840;45.982;8.890;2023-04-26T01:16:37;98041.03;;;10.19;46.21
49949;BME280;35840;45.982;8.890;2023-04-26T01:19:11;98033.00;;;9.83;46.50
49949;BME280;35840;45.982;8.890;2023-04-26T01:21:39;98029.94;;;10.19;45.79
49949;BME280;35840;45.982;8.890;2023-04-26T01:24:08;98029.34;;;10.28;43.93
49949;BME280;35840;45.982;8.890;2023-04-26T01:26:37;98011.06;;;10.32;43.95
49949;BME280;35840;45.982;8.890;2023-04-26T01:29:28;98027.13;;;10.36;44.31
49949;BME280;35840;45.982;8.890;2023-04-26T01:31:55;98037.06;;;10.00;44.87
49949;BME280;35840;45.982;8.890;2023-04-26T01:34:22;98039.38;;;10.05;45.22
49949;BME280;35840;45.982;8.890;2023-04-26T01:36:48;98049.25;;;10.39;45.43
49949;BME280;35840;45.982;8.890;2023-04-26T01:39:15;98033.25;;;10.21;44.38
49949;BME280;35840;45.982;8.890;2023-04-26T01:41:42;98045.25;;;9.93;42.62
49949;BME280;35840;45.982;8.890;2023-04-26T01:44:08;98041.13;;;10.17;42.76
49949;BME280;35840;45.982;8.890;2023-04-26T01:46:35;98031.69;;;9.91;43.71
49949;BME280;35840;45.982;8.890;2023-04-26T01:49:03;98029.06;;;9.78;44.18
49949;BME280;35840;45.982;8.890;2023-04-26T01:51:29;98050.75;;;10.01;44.52
49949;BME280;35840;45.982;8.890;2023-04-26T01:53:57;98044.91;;;9.85;44.68
49949;BME280;35840;45.982;8.890;2023-04-26T01:56:24;98037.06;;;9.73;43.70
49949;BME280;35840;45.982;8.890;2023-04-26T01:58:52;98045.56;;;9.88;44.54
49949;BME280;35840;45.982;8.890;2023-04-26T02:01:21;98045.06;;;9.69;43.53
49949;BME280;35840;45.982;8.890;2023-04-26T02:03:48;98039.34;;;9.78;43.21
49949;BME280;35840;45.982;8.890;2023-04-26T02:06:18;98043.19;;;9.71;45.10
49949;BME280;35840;45.982;8.890;2023-04-26T02:08:44;98051.75;;;9.71;45.13
49949;BME280;35840;45.982;8.890;2023-04-26T02:11:11;98046.41;;;9.74;46.15
49949;BME280;35840;45.982;8.890;2023-04-26T02:13:38;98054.13;;;10.02;46.33
49949;BME280;35840;45.982;8.890;2023-04-26T02:16:05;98053.13;;;10.04;45.52
49949;BME280;35840;45.982;8.890;2023-04-26T02:18:33;98044.25;;;10.23;46.87
49949;BME280;35840;45.982;8.890;2023-04-26T02:21:00;98052.50;;;10.28;45.65
49949;BME280;35840;45.982;8.890;2023-04-26T02:23:27;98051.00;;;10.38;46.13
49949;BME280;35840;45.982;8.890;2023-04-26T02:25:53;98049.03;;;10.42;46.06
49949;BME280;35840;45.982;8.890;2023-04-26T02:28:20;98056.13;;;10.38;46.60
49949;BME280;35840;45.982;8.890;2023-04-26T02:30:46;98062.56;;;10.31;46.44
49949;BME280;35840;45.982;8.890;2023-04-26T02:33:13;98041.38;;;10.27;45.96
49949;BME280;35840;45.982;8.890;2023-04-26T02:35:40;98067.03;;;10.42;45.92
49949;BME280;35840;45.982;8.890;2023-04-26T02:38:07;98070.75;;;10.23;46.48
49949;BME280;35840;45.982;8.890;2023-04-26T02:40:34;98060.47;;;10.23;47.20
49949;BME280;35840;45.982;8.890;2023-04-26T02:43:01;98066.25;;;9.99;47.85
49949;BME280;35840;45.982;8.890;2023-04-26T02:45:28;98068.34;;;10.07;47.93
49949;BME280;35840;45.982;8.890;2023-04-26T02:47:55;98068.53;;;10.04;47.21
49949;BME280;35840;45.982;8.890;2023-04-26T02:50:21;98074.25;;;9.80;47.53
49949;BME280;35840;45.982;8.890;2023-04-26T02:52:49;98068.31;;;9.80;47.26
49949;BME280;35840;45.982;8.890;2023-04-26T02:55:16;98068.81;;;9.58;47.79
49949;BME280;35840;45.982;8.890;2023-04-26T02:57:43;98078.03;;;9.75;47.59
49949;BME280;35840;45.982;8.890;2023-04-26T03:00:11;98064.63;;;9.28;47.60
49949;BME280;35840;45.982;8.890;2023-04-26T03:02:40;98074.34;;;9.37;47.73
49949;BME280;35840;45.982;8.890;2023-04-26T03:05:07;98073.94;;;9.58;47.66
49949;BME280;35840;45.982;8.890;2023-04-26T03:07:35;98073.66;;;9.62;47.09
49949;BME280;35840;45.982;8.890;2023-04-26T03:10:02;98075.38;;;9.76;47.24
49949;BME280;35840;45.982;8.890;2023-04-26T03:12:31;98071.09;;;9.62;47.71
49949;BME280;35840;45.982;8.890;2023-04-26T03:15:00;98068.81;;;9.58;47.64
49949;BME280;35840;45.982;8.890;2023-04-26T03:17:29;98070.09;;;9.51;47.65
49949;BME280;35840;45.982;8.890;2023-04-26T03:19:57;98065.63;;;9.25;48.16
49949;BME280;35840;45.982;8.890;2023-04-26T03:22:26;98076.31;;;9.46;48.79
49949;BME280;35840;45.982;8.890;2023-04-26T03:24:53;98076.78;;;9.10;48.83
49949;BME280;35840;45.982;8.890;2023-04-26T03:27:20;98074.28;;;8.94;49.03
49949;BME280;35840;45.982;8.890;2023-04-26T03:29:46;98077.81;;;9.07;49.42
49949;BME280;35840;45.982;8.890;2023-04-26T03:32:13;98079.81;;;9.31;49.56
49949;BME280;35840;45.982;8.890;2023-04-26T03:34:40;98080.94;;;9.41;49.06
49949;BME280;35840;45.982;8.890;2023-04-26T03:37:07;98086.88;;;9.42;49.60
49949;BME280;35840;45.982;8.890;2023-04-26T03:39:35;98079.97;;;9.57;50.38
49949;BME280;35840;45.982;8.890;2023-04-26T03:42:02;98069.34;;;9.63;50.00
49949;BME280;35840;45.982;8.890;2023-04-26T03:44:29;98080.25;;;9.67;49.53
49949;BME280;35840;45.982;8.890;2023-04-26T03:46:56;98076.31;;;9.61;49.75
49949;BME280;35840;45.982;8.890;2023-04-26T03:49:23;98078.59;;;9.51;49.79
49949;BME280;35840;45.982;8.890;2023-04-26T03:51:50;98083.56;;;9.40;49.13
49949;BME280;35840;45.982;8.890;2023-04-26T03:54:16;98074.50;;;9.34;49.55
49949;BME280;35840;45.982;8.890;2023-04-26T03:56:43;98085.22;;;9.41;49.54
49949;BME280;35840;45.982;8.890;2023-04-26T03:59:10;98096.66;;;9.50;48.88
49949;BME280;35840;45.982;8.890;2023-04-26T04:01:37;98093.28;;;9.49;48.63
49949;BME280;35840;45.982;8.890;2023-04-26T04:04:04;98095.75;;;9.51;48.48
49949;BME280;35840;45.982;8.890;2023-04-26T04:06:31;98089.72;;;9.52;48.85
49949;BME280;35840;45.982;8.890;2023-04-26T04:08:59;98079.44;;;9.52;50.83
49949;BME280;35840;45.982;8.890;2023-04-26T04:11:26;98094.19;;;9.62;49.40
49949;BME280;35840;45.982;8.890;2023-04-26T04:13:53;98104.09;;;9.69;49.56
49949;BME280;35840;45.982;8.890;2023-04-26T04:16:20;98096.84;;;9.46;49.48
49949;BME280;35840;45.982;8.890;2023-04-26T04:18:47;98097.41;;;9.52;48.69
49949;BME280;35840;45.982;8.890;2023-04-26T04:21:14;98099.91;;;9.24;49.55
49949;BME280;35840;45.982;8.890;2023-04-26T04:23:41;98097.94;;;9.13;49.97
49949;BME280;35840;45.982;8.890;2023-04-26T04:26:10;98104.47;;;9.19;49.31
49949;BME280;35840;45.982;8.890;2023-04-26T04:28:39;98090.81;;;9.19;50.42
49949;BME280;35840;45.982;8.890;2023-04-26T04:31:07;98099.75;;;8.97;50.61
49949;BME280;35840;45.982;8.890;2023-04-26T04:33:37;98111.03;;;8.64;50.90
49949;BME280;35840;45.982;8.890;2023-04-26T04:36:05;98112.81;;;8.78;50.51
49949;BME280;35840;45.982;8.890;2023-04-26T04:38:32;98112.56;;;8.97;52.02
49949;BME280;35840;45.982;8.890;2023-04-26T04:41:01;98106.81;;;8.93;51.17
49949;BME280;35840;45.982;8.890;2023-04-26T04:43:28;98108.25;;;8.53;52.04
49949;BME280;35840;45.982;8.890;2023-04-26T04:45:55;98116.28;;;8.47;52.71
49949;BME280;35840;45.982;8.890;2023-04-26T04:48:22;98121.25;;;8.34;52.83
49949;BME280;35840;45.982;8.890;2023-04-26T04:50:48;98122.41;;;8.28;51.52
49949;BME280;35840;45.982;8.890;2023-04-26T04:53:16;98123.38;;;8.41;52.90
49949;BME280;35840;45.982;8.890;2023-04-26T04:55:43;98120.56;;;8.62;52.49
49949;BME280;35840;45.982;8.890;2023-04-26T04:58:12;98121.69;;;8.72;52.58
49949;BME280;35840;45.982;8.890;2023-04-26T05:00:40;98135.28;;;8.89;51.00
49949;BME280;35840;45.982;8.890;2023-04-26T05:03:24;98129.81;;;9.09;50.27
49949;BME280;35840;45.982;8.890;2023-04-26T05:05:51;98132.84;;;9.16;50.51
49949;BME280;35840;45.982;8.890;2023-04-26T05:08:18;98128.13;;;8.94;49.49
49949;BME280;35840;45.982;8.890;2023-04-26T05:10:45;98140.94;;;9.24;50.16
49949;BME280;35840;45.982;8.890;2023-04-26T05:13:12;98148.06;;;9.34;50.37
49949;BME280;35840;45.982;8.890;2023-04-26T05:15:38;98148.66;;;9.39;49.73
49949;BME280;35840;45.982;8.890;2023-04-26T05:18:06;98145.72;;;9.45;50.47
49949;BME280;35840;45.982;8.890;2023-04-26T05:20:33;98143.91;;;9.02;50.93
49949;BME280;35840;45.982;8.890;2023-04-26T05:23:00;98148.88;;;8.75;50.74
49949;BME280;35840;45.982;8.890;2023-04-26T05:25:27;98151.59;;;9.02;50.80
49949;BME280;35840;45.982;8.890;2023-04-26T05:28:04;98158.91;;;9.24;51.55
49949;BME280;35840;45.982;8.890;2023-04-26T05:30:59;98159.19;;;9.48;53.69
49949;BME280;35840;45.982;8.890;2023-04-26T05:33:46;98162.09;;;9.57;51.49
49949;BME280;35840;45.982;8.890;2023-04-26T05:36:26;98161.09;;;9.59;49.39
49949;BME280;35840;45.982;8.890;2023-04-26T05:38:55;98167.69;;;9.63;49.71
49949;BME280;35840;45.982;8.890;2023-04-26T05:41:22;98159.44;;;9.44;49.70
49949;BME280;35840;45.982;8.890;2023-04-26T05:43:49;98172.31;;;9.73;50.30
49949;BME280;35840;45.982;8.890;2023-04-26T05:46:16;98163.84;;;9.56;49.52
49949;BME280;35840;45.982;8.890;2023-04-26T05:48:43;98169.59;;;9.45;49.26
49949;BME280;35840;45.982;8.890;2023-04-26T05:51:10;98176.50;;;9.74;50.21
49949;BME280;35840;45.982;8.890;2023-04-26T05:53:37;98174.19;;;9.83;48.18
49949;BME280;35840;45.982;8.890;2023-04-26T05:56:04;98167.25;;;9.86;49.44
49949;BME280;35840;45.982;8.890;2023-04-26T05:58:33;98172.66;;;9.81;47.83
49949;BME280;35840;45.982;8.890;2023-04-26T06:01:01;98169.44;;;9.92;47.18
49949;BME280;35840;45.982;8.890;2023-04-26T06:03:28;98179.44;;;10.11;47.70
49949;BME280;35840;45.982;8.890;2023-04-26T06:05:55;98186.03;;;10.00;46.19
49949;BME280;35840;45.982;8.890;2023-04-26T06:08:22;98178.88;;;10.06;46.11
49949;BME280;35840;45.982;8.890;2023-04-26T06:10:49;98180.22;;;10.11;47.37
49949;BME280;35840;45.982;8.890;2023-04-26T06:13:16;98182.47;;;10.30;46.62
49949;BME280;35840;45.982;8.890;2023-04-26T06:15:43;98192.13;;;10.41;46.71
49949;BME280;35840;45.982;8.890;2023-04-26T06:18:09;98185.38;;;10.53;46.81
49949;BME280;35840;45.982;8.890;2023-04-26T06:20:36;98175.53;;;10.60;46.17
49949;BME280;35840;45.982;8.890;2023-04-26T06:23:05;98178.94;;;10.60;46.24
49949;BME280;35840;45.982;8.890;2023-04-26T06:25:32;98186.78;;;10.72;45.46
49949;BME280;35840;45.982;8.890;2023-04-26T06:27:59;98177.69;;;10.80;45.56
49949;BME280;35840;45.982;8.890;2023-04-26T06:30:26;98177.81;;;10.92;45.61
49949;BME280;35840;45.982;8.890;2023-04-26T06:32:53;98179.06;;;10.99;44.79
49949;BME280;35840;45.982;8.890;2023-04-26T06:35:20;98184.94;;;11.14;45.62
49949;BME280;35840;45.982;8.890;2023-04-26T06:37:49;98184.03;;;11.28;43.70
49949;BME280;35840;45.982;8.890;2023-04-26T06:40:16;98174.06;;;11.23;43.06
49949;BME280;35840;45.982;8.890;2023-04-26T06:42:43;98177.75;;;11.32;44.47
49949;BME280;35840;45.982;8.890;2023-04-26T06:45:15;98169.94;;;11.33;45.43
49949;BME280;35840;45.982;8.890;2023-04-26T06:47:44;98172.19;;;11.38;43.86
49949;BME280;35840;45.982;8.890;2023-04-26T06:50:11;98186.81;;;11.50;44.47
49949;BME280;35840;45.982;8.890;2023-04-26T06:52:38;98178.28;;;11.37;43.55
49949;BME280;35840;45.982;8.890;2023-04-26T06:55:05;98179.53;;;11.44;43.97
49949;BME280;35840;45.982;8.890;2023-04-26T06:57:32;98190.13;;;11.52;44.87
49949;BME280;35840;45.982;8.890;2023-04-26T06:59:59;98194.53;;;11.63;44.88
49949;BME280;35840;45.982;8.890;2023-04-26T07:02:25;98192.59;;;11.67;44.33
49949;BME280;35840;45.982;8.890;2023-04-26T07:04:52;98200.94;;;11.70;44.89
49949;BME280;35840;45.982;8.890;2023-04-26T07:07:19;98186.13;;;11.61;44.29
49949;BME280;35840;45.982;8.890;2023-04-26T07:09:46;98191.75;;;11.66;44.53
49949;BME280;35840;45.982;8.890;2023-04-26T07:12:13;98186.72;;;11.65;41.87
49949;BME280;35840;45.982;8.890;2023-04-26T07:14:40;98198.66;;;11.79;44.60
49949;BME280;35840;45.982;8.890;2023-04-26T07:17:09;98197.22;;;11.87;43.69
49949;BME280;35840;45.982;8.890;2023-04-26T07:19:36;98181.75;;;11.87;43.88
49949;BME280;35840;45.982;8.890;2023-04-26T07:22:03;98193.09;;;11.98;43.60
49949;BME280;35840;45.982;8.890;2023-04-26T07:24:30;98186.41;;;12.08;44.70
49949;BME280;35840;45.982;8.890;2023-04-26T07:26:57;98194.13;;;12.08;41.82
49949;BME280;35840;45.982;8.890;2023-04-26T07:29:23;98187.19;;;12.21;44.09
49949;BME280;35840;45.982;8.890;2023-04-26T07:31:50;98192.63;;;12.30;44.72
49949;BME280;35840;45.982;8.890;2023-04-26T07:34:17;98182.81;;;12.35;44.46
49949;BME280;35840;45.982;8.890;2023-04-26T07:36:44;98183.31;;;12.40;42.70
49949;BME280;35840;45.982;8.890;2023-04-26T07:39:10;98181.75;;;12.50;43.63
49949;BME280;35840;45.982;8.890;2023-04-26T07:41:37;98180.56;;;12.54;44.67
49949;BME280;35840;45.982;8.890;2023-04-26T07:44:06;98180.94;;;12.61;44.06
49949;BME280;35840;45.982;8.890;2023-04-26T07:46:33;98170.03;;;12.57;41.04
49949;BME280;35840;45.982;8.890;2023-04-26T07:49:00;98175.72;;;12.74;43.71
49949;BME280;35840;45.982;8.890;2023-04-26T07:51:27;98177.66;;;12.83;43.13
49949;BME280;35840;45.982;8.890;2023-04-26T07:53:54;98168.75;;;12.87;40.16
49949;BME280;35840;45.982;8.890;2023-04-26T07:56:23;98171.69;;;12.94;41.08
49949;BME280;35840;45.982;8.890;2023-04-26T07:58:50;98171.25;;;13.00;39.77
49949;BME280;35840;45.982;8.890;2023-04-26T08:01:17;98174.31;;;13.05;40.49
49949;BME280;35840;45.982;8.890;2023-04-26T08:03:43;98177.03;;;13.15;40.95
49949;BME280;35840;45.982;8.890;2023-04-26T08:06:10;98175.88;;;13.19;39.36
49949;BME280;35840;45.982;8.890;2023-04-26T08:08:37;98169.09;;;13.18;38.57
49949;BME280;35840;45.982;8.890;2023-04-26T08:11:10;98175.44;;;13.25;41.07
49949;BME280;35840;45.982;8.890;2023-04-26T08:13:37;98170.75;;;13.31;40.43
49949;BME280;35840;45.982;8.890;2023-04-26T08:16:04;98160.19;;;13.34;41.55
49949;BME280;35840;45.982;8.890;2023-04-26T08:18:31;98165.19;;;13.48;41.36
49949;BME280;35840;45.982;8.890;2023-04-26T08:20:59;98168.44;;;13.50;39.84
49949;BME280;35840;45.982;8.890;2023-04-26T08:23:26;98158.00;;;13.52;37.82
49949;BME280;35840;45.982;8.890;2023-04-26T08:25:53;98168.59;;;13.60;38.53
49949;BME280;35840;45.982;8.890;2023-04-26T08:28:20;98166.34;;;13.67;38.06
49949;BME280;35840;45.982;8.890;2023-04-26T08:30:47;98170.13;;;13.74;39.97
49949;BME280;35840;45.982;8.890;2023-04-26T08:33:13;98172.56;;;13.87;37.49
49949;BME280;35840;45.982;8.890;2023-04-26T08:35:40;98171.53;;;13.89;36.47
49949;BME280;35840;45.982;8.890;2023-04-26T08:38:07;98172.22;;;13.91;34.95
49949;BME280;35840;45.982;8.890;2023-04-26T08:40:35;98165.75;;;13.97;36.34
49949;BME280;35840;45.982;8.890;2023-04-26T08:43:01;98163.97;;;14.09;37.89
49949;BME280;35840;45.982;8.890;2023-04-26T08:45:30;98165.25;;;14.15;35.23
49949;BME280;35840;45.982;8.890;2023-04-26T08:48:02;98170.63;;;14.23;35.84
49949;BME280;35840;45.982;8.890;2023-04-26T08:50:32;98165.44;;;14.34;37.38
49949;BME280;35840;45.982;8.890;2023-04-26T08:53:00;98164.38;;;14.37;34.95
49949;BME280;35840;45.982;8.890;2023-04-26T08:55:26;98168.00;;;14.45;36.33
49949;BME280;35840;45.982;8.890;2023-04-26T08:57:54;98165.00;;;14.61;34.45
49949;BME280;35840;45.982;8.890;2023-04-26T09:00:22;98162.91;;;14.55;34.80
49949;BME280;35840;45.982;8.890;2023-04-26T09:02:50;98161.38;;;14.64;36.68
49949;BME280;35840;45.982;8.890;2023-04-26T09:05:19;98164.06;;;14.74;36.82
49949;BME280;35840;45.982;8.890;2023-04-26T09:07:51;98165.59;;;14.76;35.12
49949;BME280;35840;45.982;8.890;2023-04-26T09:10:19;98162.75;;;14.79;36.40
49949;BME280;35840;45.982;8.890;2023-04-26T09:12:54;98165.16;;;14.92;35.37
49949;BME280;35840;45.982;8.890;2023-04-26T09:15:23;98162.22;;;14.97;31.74
49949;BME280;35840;45.982;8.890;2023-04-26T09:17:50;98160.31;;;14.99;31.68
49949;BME280;35840;45.982;8.890;2023-04-26T09:20:22;98163.28;;;14.94;31.39
49949;BME280;35840;45.982;8.890;2023-04-26T09:22:51;98166.53;;;14.96;33.90
49949;BME280;35840;45.982;8.890;2023-04-26T09:25:28;98161.06;;;15.11;34.96
49949;BME280;35840;45.982;8.890;2023-04-26T09:27:56;98157.91;;;15.28;37.99
49949;BME280;35840;45.982;8.890;2023-04-26T09:30:24;98155.38;;;15.38;36.59
49949;BME280;35840;45.982;8.890;2023-04-26T09:35:26;98143.97;;;15.29;33.02
49949;BME280;35840;45.982;8.890;2023-04-26T09:38:00;98140.31;;;15.32;34.33
49949;BME280;35840;45.982;8.890;2023-04-26T09:40:39;98147.94;;;15.55;33.62
49949;BME280;35840;45.982;8.890;2023-04-26T09:43:12;98149.22;;;15.70;32.32
49949;BME280;35840;45.982;8.890;2023-04-26T09:45:56;98145.56;;;15.73;29.29
49949;BME280;35840;45.982;8.890;2023-04-26T09:48:29;98149.41;;;15.78;31.42
49949;BME280;35840;45.982;8.890;2023-04-26T09:53:34;98138.72;;;16.03;32.08
49949;BME280;35840;45.982;8.890;2023-04-26T09:58:33;98130.41;;;16.09;29.94
49949;BME280;35840;45.982;8.890;2023-04-26T10:01:01;98122.47;;;16.10;30.06
49949;BME280;35840;45.982;8.890;2023-04-26T10:03:29;98136.31;;;16.30;30.69
49949;BME280;35840;45.982;8.890;2023-04-26T10:05:58;98125.25;;;16.28;29.67
49949;BME280;35840;45.982;8.890;2023-04-26T10:08:25;98131.00;;;16.42;32.70
49949;BME280;35840;45.982;8.890;2023-04-26T10:10:53;98127.16;;;16.56;27.34
49949;BME280;35840;45.982;8.890;2023-04-26T10:13:20;98126.22;;;16.57;30.11
49949;BME280;35840;45.982;8.890;2023-04-26T10:15:47;98130.03;;;16.62;31.55
49949;BME280;35840;45.982;8.890;2023-04-26T10:18:14;98113.53;;;16.63;28.56
49949;BME280;35840;45.982;8.890;2023-04-26T10:20:44;98111.06;;;16.72;28.62
49949;BME280;35840;45.982;8.890;2023-04-26T10:23:17;98102.88;;;16.66;29.51
49949;BME280;35840;45.982;8.890;2023-04-26T10:25:47;98106.41;;;16.75;29.74
49949;BME280;35840;45.982;8.890;2023-04-26T10:28:14;98103.41;;;16.80;27.75
49949;BME280;35840;45.982;8.890;2023-04-26T10:30:55;98101.91;;;16.77;28.06
49949;BME280;35840;45.982;8.890;2023-04-26T10:33:26;98098.75;;;16.83;30.90
49949;BME280;35840;45.982;8.890;2023-04-26T10:36:12;98104.50;;;16.87;30.91
49949;BME280;35840;45.982;8.890;2023-04-26T10:39:17;98092.47;;;16.96;30.01
49949;BME280;35840;45.982;8.890;2023-04-26T10:41:48;98094.94;;;16.97;28.77
49949;BME280;35840;45.982;8.890;2023-04-26T10:44:38;98098.19;;;17.09;28.82
49949;BME280;35840;45.982;8.890;2023-04-26T10:47:10;98089.75;;;16.97;29.12
49949;BME280;35840;45.982;8.890;2023-04-26T10:49:46;98087.13;;;17.07;29.67
49949;BME280;35840;45.982;8.890;2023-04-26T10:52:15;98088.06;;;17.06;30.34
49949;BME280;35840;45.982;8.890;2023-04-26T10:54:52;98078.66;;;16.95;27.84
49949;BME280;35840;45.982;8.890;2023-04-26T10:57:19;98080.44;;;17.04;30.29
49949;BME280;35840;45.982;8.890;2023-04-26T11:02:51;98081.88;;;17.27;32.07
49949;BME280;35840;45.982;8.890;2023-04-26T11:05:51;98075.03;;;17.26;28.34
49949;BME280;35840;45.982;8.890;2023-04-26T11:08:26;98063.25;;;17.31;29.41
49949;BME280;35840;45.982;8.890;2023-04-26T11:10:57;98068.25;;;17.43;29.25
49949;BME280;35840;45.982;8.890;2023-04-26T11:13:24;98065.41;;;17.36;28.23
49949;BME280;35840;45.982;8.890;2023-04-26T11:15:52;98070.47;;;17.37;31.14
49949;BME280;35840;45.982;8.890;2023-04-26T11:18:19;98056.19;;;17.51;32.45
49949;BME280;35840;45.982;8.890;2023-04-26T11:20:46;98058.03;;;17.59;30.09
49949;BME280;35840;45.982;8.890;2023-04-26T11:23:13;98050.97;;;17.51;29.59
49949;BME280;35840;45.982;8.890;2023-04-26T11:25:40;98056.84;;;17.53;34.09
49949;BME280;35840;45.982;8.890;2023-04-26T11:28:07;98046.38;;;17.45;29.63
49949;BME280;35840;45.982;8.890;2023-04-26T11:30:34;98049.59;;;17.57;30.15
49949;BME280;35840;45.982;8.890;2023-04-26T11:33:02;98041.53;;;17.50;27.58
49949;BME280;35840;45.982;8.890;2023-04-26T11:35:37;98039.69;;;17.43;27.38
49949;BME280;35840;45.982;8.890;2023-04-26T11:38:05;98045.19;;;17.58;28.07
49949;BME280;35840;45.982;8.890;2023-04-26T11:40:32;98044.59;;;17.73;29.58
49949;BME280;35840;45.982;8.890;2023-04-26T11:43:05;98039.38;;;17.73;31.67
49949;BME280;35840;45.982;8.890;2023-04-26T11:45:34;98031.19;;;17.68;29.26
49949;BME280;35840;45.982;8.890;2023-04-26T11:48:03;98031.56;;;17.73;28.50
49949;BME280;35840;45.982;8.890;2023-04-26T11:50:32;98032.63;;;17.81;28.85
49949;BME280;35840;45.982;8.890;2023-04-26T11:53:01;98039.16;;;17.85;26.55
49949;BME280;35840;45.982;8.890;2023-04-26T11:55:30;98030.09;;;17.71;27.02
49949;BME280;35840;45.982;8.890;2023-04-26T11:58:08;98025.13;;;17.78;30.72
49949;BME280;35840;45.982;8.890;2023-04-26T12:00:35;98034.31;;;17.90;32.20
49949;BME280;35840;45.982;8.890;2023-04-26T12:03:05;98025.97;;;17.96;29.82
49949;BME280;35840;45.982;8.890;2023-04-26T12:05:36;98027.75;;;17.96;30.91
49949;BME280;35840;45.982;8.890;2023-04-26T12:08:04;98022.13;;;18.00;31.25
49949;BME280;35840;45.982;8.890;2023-04-26T12:10:39;98021.28;;;18.18;29.84
49949;BME280;35840;45.982;8.890;2023-04-26T12:13:06;98022.56;;;18.14;29.47
49949;BME280;35840;45.982;8.890;2023-04-26T12:15:34;98025.22;;;18.22;28.26
49949;BME280;35840;45.982;8.890;2023-04-26T12:18:10;98022.19;;;18.27;28.80
49949;BME280;35840;45.982;8.890;2023-04-26T12:20:40;98020.84;;;18.22;28.67
49949;BME280;35840;45.982;8.890;2023-04-26T12:23:08;98015.78;;;18.21;30.05
49949;BME280;35840;45.982;8.890;2023-04-26T12:25:37;98020.38;;;18.27;29.18
49949;BME280;35840;45.982;8.890;2023-04-26T12:28:06;98010.44;;;18.22;27.59
49949;BME280;35840;45.982;8.890;2023-04-26T12:30:39;98003.88;;;18.18;28.50
49949;BME280;35840;45.982;8.890;2023-04-26T12:33:06;98010.97;;;18.26;29.13
49949;BME280;35840;45.982;8.890;2023-04-26T12:35:42;97999.13;;;18.32;29.50
49949;BME280;35840;45.982;8.890;2023-04-26T12:38:10;98006.63;;;18.35;28.25
49949;BME280;35840;45.982;8.890;2023-04-26T12:40:38;98008.44;;;18.34;28.39
49949;BME280;35840;45.982;8.890;2023-04-26T12:43:05;98000.81;;;18.41;30.21
49949;BME280;35840;45.982;8.890;2023-04-26T12:45:33;97994.56;;;18.52;29.73
49949;BME280;35840;45.982;8.890;2023-04-26T12:48:00;98002.28;;;18.62;28.25
49949;BME280;35840;45.982;8.890;2023-04-26T12:50:27;98002.75;;;18.65;29.30
49949;BME280;35840;45.982;8.890;2023-04-26T12:52:54;97997.75;;;18.72;29.20
49949;BME280;35840;45.982;8.890;2023-04-26T12:55:20;98007.56;;;18.78;28.50
49949;BME280;35840;45.982;8.890;2023-04-26T12:57:47;97996.50;;;18.76;28.07
49949;BME280;35840;45.982;8.890;2023-04-26T13:00:15;97993.38;;;18.72;27.83
49949;BME280;35840;45.982;8.890;2023-04-26T13:02:43;97990.31;;;18.77;27.32
49949;BME280;35840;45.982;8.890;2023-04-26T13:05:11;97987.03;;;18.75;28.75
49949;BME280;35840;45.982;8.890;2023-04-26T13:07:41;97985.97;;;18.86;28.62
49949;BME280;35840;45.982;8.890;2023-04-26T13:10:08;97981.00;;;18.92;29.58
49949;BME280;35840;45.982;8.890;2023-04-26T13:12:38;97988.50;;;18.96;27.63
49949;BME280;35840;45.982;8.890;2023-04-26T13:15:06;97980.84;;;18.94;28.39
49949;BME280;35840;45.982;8.890;2023-04-26T13:17:34;97979.19;;;18.93;28.13
49949;BME280;35840;45.982;8.890;2023-04-26T13:20:03;97980.84;;;19.02;27.47